createdAt,value
2022-09-17T00:01:15.422Z,1.27
2022-09-17T00:03:42.382Z,1.60
2022-09-17T00:06:11.638Z,1.80
2022-09-17T00:08:40.564Z,1.50
2022-09-17T00:11:21.187Z,1.60
2022-09-17T00:16:25.172Z,1.13
2022-09-17T00:18:51.743Z,1.80
2022-09-17T00:21:19.813Z,1.90
2022-09-17T00:23:47.165Z,1.10
2022-09-17T00:26:14.020Z,1.30
2022-09-17T00:28:41.713Z,1.05
2022-09-17T00:31:09.684Z,1.30
2022-09-17T00:33:37.068Z,1.30
2022-09-17T00:36:05.415Z,1.10
2022-09-17T00:38:32.927Z,1.25
2022-09-17T00:41:00.773Z,1.27
2022-09-17T00:43:40.301Z,1.55
2022-09-17T00:46:22.995Z,1.87
2022-09-17T00:48:50.997Z,1.35
2022-09-17T00:51:23.476Z,0.98
2022-09-17T00:53:49.999Z,1.35
2022-09-17T00:56:39.975Z,1.90
2022-09-17T00:59:27.000Z,1.25
2022-09-17T01:02:14.521Z,1.13
2022-09-17T01:05:01.122Z,1.20
2022-09-17T01:08:14.677Z,1.40
2022-09-17T01:11:21.551Z,1.17
2022-09-17T01:13:59.813Z,1.33
2022-09-17T01:16:31.404Z,1.17
2022-09-17T01:19:23.016Z,1.10
2022-09-17T01:22:04.662Z,1.45
2022-09-17T01:24:46.251Z,1.30
2022-09-17T01:27:50.856Z,1.30
2022-09-17T01:30:51.994Z,1.20
2022-09-17T01:36:12.073Z,1.50
2022-09-17T01:38:49.288Z,1.27
2022-09-17T01:41:43.745Z,1.15
2022-09-17T01:44:21.823Z,0.95
2022-09-17T01:46:58.453Z,1.40
2022-09-17T01:49:26.104Z,0.95
2022-09-17T01:51:55.058Z,1.10
2022-09-17T01:54:32.532Z,1.40
2022-09-17T01:57:01.977Z,1.58
2022-09-17T01:59:49.171Z,1.17
2022-09-17T02:02:27.348Z,0.85
2022-09-17T02:05:05.111Z,1.63
2022-09-17T02:07:37.344Z,1.20
2022-09-17T02:10:12.831Z,1.17
2022-09-17T02:12:45.991Z,1.40
2022-09-17T02:15:24.971Z,1.33
2022-09-17T02:18:03.014Z,1.50
2022-09-17T02:20:45.224Z,1.13
2022-09-17T02:23:17.342Z,1.20
2022-09-17T02:25:57.350Z,1.20
2022-09-17T02:28:35.782Z,1.65
2022-09-17T02:31:02.567Z,1.30
2022-09-17T02:33:31.996Z,1.15
2022-09-17T02:35:58.786Z,1.30
2022-09-17T02:38:26.591Z,1.42
2022-09-17T02:41:05.586Z,1.20
2022-09-17T02:43:41.424Z,1.25
2022-09-17T02:46:28.556Z,1.30
2022-09-17T02:49:24.282Z,1.45
2022-09-17T02:52:22.592Z,1.33
2022-09-17T02:55:02.522Z,1.02
2022-09-17T02:57:42.991Z,1.20
2022-09-17T03:02:48.690Z,1.67
2022-09-17T03:05:18.935Z,1.27
2022-09-17T03:07:45.561Z,1.67
2022-09-17T03:10:13.434Z,1.60
2022-09-17T03:12:40.659Z,1.40
2022-09-17T03:15:08.175Z,1.70
2022-09-17T03:17:34.653Z,1.52
2022-09-17T03:20:01.583Z,1.30
2022-09-17T03:22:28.541Z,1.55
2022-09-17T03:24:54.938Z,1.90
2022-09-17T03:27:21.866Z,1.70
2022-09-17T03:29:48.241Z,1.40
2022-09-17T03:32:15.015Z,1.45
2022-09-17T03:34:41.853Z,1.52
2022-09-17T03:37:08.464Z,1.35
2022-09-17T03:39:35.206Z,1.40
2022-09-17T03:42:01.797Z,1.83
2022-09-17T03:44:28.217Z,1.58
2022-09-17T03:46:54.908Z,1.77
2022-09-17T03:49:21.605Z,1.80
2022-09-17T03:51:48.228Z,1.42
2022-09-17T03:54:14.705Z,1.45
2022-09-17T03:56:41.701Z,1.35
2022-09-17T03:59:08.089Z,1.50
2022-09-17T04:01:35.386Z,1.75
2022-09-17T04:04:03.571Z,2.35
2022-09-17T04:06:30.424Z,1.73
2022-09-17T04:08:57.574Z,1.65
2022-09-17T04:11:23.929Z,2.05
2022-09-17T04:13:50.908Z,1.50
2022-09-17T04:16:17.502Z,1.48
2022-09-17T04:18:45.270Z,1.65
2022-09-17T04:21:11.717Z,1.40
2022-09-17T04:23:38.939Z,1.45
2022-09-17T04:26:05.847Z,1.85
2022-09-17T04:28:32.744Z,1.40
2022-09-17T04:30:59.912Z,1.65
2022-09-17T04:33:26.392Z,1.67
2022-09-17T04:35:54.233Z,1.83
2022-09-17T04:38:22.034Z,1.63
2022-09-17T04:40:48.959Z,1.20
2022-09-17T04:43:16.152Z,1.65
2022-09-17T04:45:47.033Z,1.45
2022-09-17T04:48:14.213Z,1.77
2022-09-17T04:50:40.814Z,1.27
2022-09-17T04:53:07.334Z,1.38
2022-09-17T04:55:34.465Z,1.33
2022-09-17T04:58:01.328Z,1.25
2022-09-17T05:00:27.733Z,1.55
2022-09-17T05:02:55.084Z,1.63
2022-09-17T05:05:23.786Z,1.35
2022-09-17T05:07:50.288Z,1.15
2022-09-17T05:10:18.927Z,1.23
2022-09-17T05:12:50.104Z,1.50
2022-09-17T05:15:17.539Z,1.52
2022-09-17T05:17:44.394Z,1.15
2022-09-17T05:20:12.375Z,1.33
2022-09-17T05:22:49.428Z,1.40
2022-09-17T05:25:17.303Z,1.88
2022-09-17T05:27:44.734Z,1.40
2022-09-17T05:30:12.438Z,1.30
2022-09-17T05:32:40.584Z,1.42
2022-09-17T05:35:08.625Z,1.58
2022-09-17T05:37:35.451Z,1.30
2022-09-17T05:40:04.827Z,1.90
2022-09-17T05:42:31.290Z,1.80
2022-09-17T05:44:57.973Z,2.03
2022-09-17T05:47:24.544Z,1.85
2022-09-17T05:49:51.129Z,2.55
2022-09-17T05:52:17.513Z,2.05
2022-09-17T05:54:44.880Z,1.83
2022-09-17T05:57:11.328Z,1.33
2022-09-17T05:59:38.066Z,1.58
2022-09-17T06:02:05.345Z,1.10
2022-09-17T06:04:34.902Z,1.45
2022-09-17T06:07:08.998Z,1.92
2022-09-17T06:09:37.489Z,1.63
2022-09-17T06:12:05.186Z,1.50
2022-09-17T06:14:32.099Z,1.60
2022-09-17T06:16:58.964Z,1.58
2022-09-17T06:19:25.365Z,1.65
2022-09-17T06:21:52.361Z,1.70
2022-09-17T06:24:19.776Z,2.00
2022-09-17T06:26:46.761Z,1.80
2022-09-17T06:29:15.286Z,1.40
2022-09-17T06:31:44.971Z,1.65
2022-09-17T06:34:12.328Z,1.50
2022-09-17T06:36:38.940Z,2.10
2022-09-17T06:39:06.209Z,1.67
2022-09-17T06:41:33.360Z,1.73
2022-09-17T06:46:30.540Z,1.63
2022-09-17T06:48:57.148Z,1.70
2022-09-17T06:51:23.811Z,2.10
2022-09-17T06:53:50.562Z,1.90
2022-09-17T06:56:17.764Z,1.63
2022-09-17T06:58:44.302Z,1.92
2022-09-17T07:01:12.721Z,1.70
2022-09-17T07:03:42.745Z,1.60
2022-09-17T07:06:10.954Z,2.15
2022-09-17T07:08:38.202Z,2.25
2022-09-17T07:11:05.290Z,2.20
2022-09-17T07:13:31.697Z,2.15
2022-09-17T07:16:01.202Z,1.83
2022-09-17T07:18:28.202Z,1.90
2022-09-17T07:21:01.169Z,2.35
2022-09-17T07:23:30.358Z,1.90
2022-09-17T07:25:59.443Z,1.60
2022-09-17T07:28:27.661Z,2.15
2022-09-17T07:30:55.661Z,1.83
2022-09-17T07:33:26.603Z,2.33
2022-09-17T07:36:00.817Z,2.00
2022-09-17T07:38:29.088Z,2.08
2022-09-17T07:40:57.910Z,1.92
2022-09-17T07:43:26.846Z,2.05
2022-09-17T07:45:57.942Z,2.08
2022-09-17T07:48:25.993Z,2.10
2022-09-17T07:50:52.904Z,2.22
2022-09-17T07:53:20.137Z,2.20
2022-09-17T07:55:57.383Z,2.28
2022-09-17T07:58:29.812Z,2.33
2022-09-17T08:01:03.571Z,3.65
2022-09-17T08:03:30.822Z,2.40
2022-09-17T08:06:07.052Z,2.22
2022-09-17T08:08:35.970Z,1.95
2022-09-17T08:11:16.393Z,2.33
2022-09-17T08:13:53.065Z,2.38
2022-09-17T08:16:21.363Z,2.22
2022-09-17T08:18:48.856Z,2.22
2022-09-17T08:21:18.462Z,2.10
2022-09-17T08:23:45.448Z,2.40
2022-09-17T08:26:15.283Z,2.40
2022-09-17T08:28:45.617Z,1.92
2022-09-17T08:33:40.627Z,1.65
2022-09-17T08:36:08.714Z,1.50
2022-09-17T08:38:40.579Z,1.90
2022-09-17T08:41:10.245Z,1.98
2022-09-17T08:44:07.635Z,2.08
2022-09-17T08:46:50.483Z,1.83
2022-09-17T08:49:32.482Z,2.42
2022-09-17T08:52:57.618Z,1.60
2022-09-17T08:55:46.292Z,1.90
2022-09-17T08:58:32.142Z,2.25
2022-09-17T09:01:11.165Z,1.88
2022-09-17T09:04:03.457Z,1.92
2022-09-17T09:06:36.326Z,2.35
2022-09-17T09:09:07.608Z,1.90
2022-09-17T09:11:34.951Z,2.03
2022-09-17T09:14:11.472Z,2.17
2022-09-17T09:16:41.616Z,2.33
2022-09-17T09:19:21.805Z,2.13
2022-09-17T09:22:01.762Z,2.40
2022-09-17T09:24:39.554Z,1.85
2022-09-17T09:27:27.497Z,2.13
2022-09-17T09:29:57.622Z,2.15
2022-09-17T09:32:45.856Z,2.08
2022-09-17T09:35:19.836Z,1.92
2022-09-17T09:38:04.442Z,1.90
2022-09-17T09:40:41.628Z,1.38
2022-09-17T09:43:32.797Z,2.30
2022-09-17T09:46:36.625Z,1.40
2022-09-17T09:49:31.083Z,1.50
2022-09-17T09:52:33.035Z,1.73
2022-09-17T09:55:16.803Z,1.77
2022-09-17T09:57:53.925Z,1.77
2022-09-17T10:00:30.332Z,1.35
2022-09-17T10:03:24.006Z,1.70
2022-09-17T10:06:10.736Z,1.67
2022-09-17T10:08:40.512Z,1.73
2022-09-17T10:11:20.874Z,1.60
2022-09-17T10:16:25.457Z,1.33
2022-09-17T10:19:04.343Z,1.45
2022-09-17T10:21:33.722Z,1.98
2022-09-17T10:24:03.108Z,1.63
2022-09-17T10:26:33.706Z,1.73
2022-09-17T10:29:03.650Z,1.20
2022-09-17T10:31:53.396Z,2.15
2022-09-17T10:34:31.220Z,1.33
2022-09-17T10:36:58.944Z,1.92
2022-09-17T10:39:34.416Z,1.63
2022-09-17T10:42:22.186Z,1.27
2022-09-17T10:45:00.972Z,1.85
2022-09-17T10:47:35.926Z,1.17
2022-09-17T10:50:08.258Z,1.73
2022-09-17T10:52:57.536Z,1.02
2022-09-17T10:55:33.677Z,1.58
2022-09-17T10:58:08.892Z,1.15
2022-09-17T11:01:12.817Z,1.45
2022-09-17T11:03:58.596Z,1.75
2022-09-17T11:06:40.358Z,1.52
2022-09-17T11:09:28.224Z,1.83
2022-09-17T11:12:04.825Z,1.83
2022-09-17T11:14:50.363Z,1.35
2022-09-17T11:17:52.157Z,1.63
2022-09-17T11:20:54.226Z,1.33
2022-09-17T11:23:31.150Z,1.70
2022-09-17T11:26:03.786Z,0.82
2022-09-17T11:28:49.235Z,1.48
2022-09-17T11:31:31.880Z,1.40
2022-09-17T11:34:10.561Z,1.08
2022-09-17T11:37:10.653Z,1.63
2022-09-17T11:39:57.419Z,1.20
2022-09-17T11:43:03.198Z,1.17
2022-09-17T11:45:36.489Z,1.20
2022-09-17T11:48:20.654Z,1.33
2022-09-17T11:50:53.481Z,1.63
2022-09-17T11:53:46.125Z,1.90
2022-09-17T11:56:26.164Z,1.60
2022-09-17T11:59:04.561Z,1.30
2022-09-17T12:01:40.594Z,1.52
2022-09-17T12:04:27.128Z,1.85
2022-09-17T12:07:04.883Z,1.58
2022-09-17T12:09:35.080Z,1.00
2022-09-17T12:12:37.851Z,1.70
2022-09-17T12:15:06.712Z,1.40
2022-09-17T12:17:45.086Z,0.93
2022-09-17T12:20:31.841Z,1.77
2022-09-17T12:23:03.400Z,1.65
2022-09-17T12:25:50.448Z,1.70
2022-09-17T12:28:25.260Z,1.75
2022-09-17T12:31:06.084Z,1.40
2022-09-17T12:33:45.943Z,1.10
2022-09-17T12:36:40.148Z,1.30
2022-09-17T12:39:35.848Z,1.10
2022-09-17T12:42:28.633Z,1.23
2022-09-17T12:45:11.069Z,1.55
2022-09-17T12:48:15.142Z,1.65
2022-09-17T12:51:25.888Z,1.30
2022-09-17T12:54:23.336Z,1.25
2022-09-17T12:57:24.417Z,1.38
2022-09-17T13:00:01.798Z,2.22
2022-09-17T13:03:04.002Z,0.93
2022-09-17T13:05:49.914Z,0.93
2022-09-17T13:08:53.483Z,1.38
2022-09-17T13:11:32.448Z,1.13
2022-09-17T13:14:24.677Z,1.30
2022-09-17T13:17:08.059Z,1.10
2022-09-17T13:20:00.460Z,1.20
2022-09-17T13:22:31.482Z,1.00
2022-09-17T13:25:05.460Z,1.27
2022-09-17T13:27:33.411Z,1.10
2022-09-17T13:30:00.695Z,1.23
2022-09-17T13:32:36.590Z,1.25
2022-09-17T13:35:12.375Z,1.30
2022-09-17T13:37:56.255Z,1.42
2022-09-17T13:40:24.910Z,0.90
2022-09-17T13:42:57.305Z,1.50
2022-09-17T13:45:25.467Z,1.35
2022-09-17T13:47:58.141Z,1.23
2022-09-17T13:50:32.571Z,0.73
2022-09-17T13:53:06.435Z,0.82
2022-09-17T13:55:40.811Z,0.88
2022-09-17T13:58:22.339Z,1.38
2022-09-17T14:00:52.050Z,0.98
2022-09-17T14:03:30.979Z,0.63
2022-09-17T14:06:19.595Z,0.77
2022-09-17T14:08:49.727Z,1.20
2022-09-17T14:11:22.889Z,0.85
2022-09-17T14:14:05.532Z,0.98
2022-09-17T14:16:46.595Z,0.70
2022-09-17T14:19:16.329Z,1.15
2022-09-17T14:21:46.489Z,0.82
2022-09-17T14:24:23.022Z,0.70
2022-09-17T14:27:06.025Z,0.80
2022-09-17T14:30:00.515Z,0.85
2022-09-17T14:32:34.492Z,0.90
2022-09-17T14:35:04.000Z,1.08
2022-09-17T14:37:30.984Z,1.30
2022-09-17T14:39:58.923Z,0.80
2022-09-17T14:42:35.252Z,0.60
2022-09-17T14:45:08.106Z,0.50
2022-09-17T14:47:34.516Z,0.50
2022-09-17T14:50:25.404Z,0.50
2022-09-17T14:52:54.403Z,0.50
2022-09-17T14:55:27.932Z,0.63
2022-09-17T14:57:56.822Z,0.60
2022-09-17T15:00:50.204Z,0.40
2022-09-17T15:03:24.513Z,0.60
2022-09-17T15:05:51.629Z,0.80
2022-09-17T15:08:21.319Z,1.00
2022-09-17T15:11:07.476Z,0.90
2022-09-17T15:13:42.520Z,0.70
2022-09-17T15:16:19.682Z,0.50
2022-09-17T15:18:57.160Z,0.70
2022-09-17T15:21:43.585Z,0.73
2022-09-17T15:24:27.943Z,0.65
2022-09-17T15:26:58.386Z,0.60
2022-09-17T15:29:30.204Z,0.50
2022-09-17T15:31:57.427Z,0.73
2022-09-17T15:34:24.032Z,0.82
2022-09-17T15:37:20.747Z,0.70
2022-09-17T15:39:51.013Z,0.50
2022-09-17T15:44:46.168Z,0.93
2022-09-17T15:47:39.180Z,0.95
2022-09-17T15:50:24.397Z,0.93
2022-09-17T15:52:59.376Z,1.00
2022-09-17T15:55:33.811Z,0.70
2022-09-17T15:58:02.738Z,1.33
2022-09-17T16:00:29.570Z,1.10
2022-09-17T16:02:56.051Z,0.88
2022-09-17T16:05:26.116Z,0.88
2022-09-17T16:07:52.591Z,0.70
2022-09-17T16:10:20.050Z,0.85
2022-09-17T16:12:49.636Z,1.08
2022-09-17T16:15:17.639Z,0.68
2022-09-17T16:17:44.945Z,0.82
2022-09-17T16:20:23.300Z,1.80
2022-09-17T16:22:51.141Z,1.27
2022-09-17T16:25:19.583Z,0.63
2022-09-17T16:27:57.728Z,0.90
2022-09-17T16:30:25.655Z,0.60
2022-09-17T16:32:52.963Z,0.40
2022-09-17T16:35:24.479Z,0.50
2022-09-17T16:37:53.028Z,0.47
2022-09-17T16:40:21.705Z,0.50
2022-09-17T16:42:48.692Z,0.60
2022-09-17T16:45:16.176Z,0.77
2022-09-17T16:47:43.316Z,0.63
2022-09-17T16:50:15.804Z,0.60
2022-09-17T16:52:43.001Z,0.57
2022-09-17T16:55:10.456Z,0.70
2022-09-17T16:57:37.288Z,0.60
2022-09-17T17:00:06.159Z,0.90
2022-09-17T17:02:32.843Z,0.70
2022-09-17T17:04:59.452Z,0.60
2022-09-17T17:07:26.020Z,0.80
2022-09-17T17:09:52.476Z,0.70
2022-09-17T17:12:19.526Z,0.65
2022-09-17T17:14:50.330Z,0.80
2022-09-17T17:17:18.064Z,1.00
2022-09-17T17:19:45.887Z,0.77
2022-09-17T17:22:14.348Z,0.77
2022-09-17T17:24:41.416Z,0.70
2022-09-17T17:27:09.522Z,0.65
2022-09-17T17:29:36.387Z,0.73
2022-09-17T17:32:04.547Z,0.80
2022-09-17T17:34:31.528Z,0.70
2022-09-17T17:36:59.294Z,0.57
2022-09-17T17:39:25.795Z,1.00
2022-09-17T17:41:54.257Z,1.20
2022-09-17T17:44:20.673Z,0.93
2022-09-17T17:46:47.575Z,0.70
2022-09-17T17:49:14.180Z,1.13
2022-09-17T17:51:41.194Z,1.00
2022-09-17T17:54:08.028Z,1.10
2022-09-17T17:56:34.579Z,0.98
2022-09-17T17:59:01.281Z,1.60
2022-09-17T18:01:29.914Z,1.42
2022-09-17T18:03:58.169Z,1.40
2022-09-17T18:06:25.818Z,1.27
2022-09-17T18:08:52.797Z,1.20
2022-09-17T18:11:20.303Z,1.20
2022-09-17T18:13:50.822Z,1.33
2022-09-17T18:16:17.857Z,1.10
2022-09-17T18:18:45.672Z,1.02
2022-09-17T18:21:15.873Z,0.90
2022-09-17T18:23:43.705Z,1.20
2022-09-17T18:26:13.187Z,0.95
2022-09-17T18:28:40.290Z,1.63
2022-09-17T18:31:32.270Z,1.60
2022-09-17T18:34:02.598Z,2.30
2022-09-17T18:36:32.149Z,2.30
2022-09-17T18:39:24.158Z,2.08
2022-09-17T18:41:51.356Z,1.77
2022-09-17T18:44:21.373Z,1.50
2022-09-17T18:46:49.615Z,1.70
2022-09-17T18:49:16.386Z,1.30
2022-09-17T18:51:43.184Z,1.83
2022-09-17T18:54:12.478Z,1.50
2022-09-17T18:56:40.163Z,1.50
2022-09-17T18:59:08.282Z,1.50
2022-09-17T19:01:35.595Z,1.42
2022-09-17T19:04:03.099Z,1.38
2022-09-17T19:06:31.810Z,1.10
2022-09-17T19:09:00.858Z,1.60
2022-09-17T19:11:27.452Z,1.27
2022-09-17T19:13:54.399Z,1.50
2022-09-17T19:16:20.854Z,1.30
2022-09-17T19:18:47.415Z,1.98
2022-09-17T19:21:16.053Z,2.13
2022-09-17T19:23:44.814Z,1.38
2022-09-17T19:26:13.427Z,1.77
2022-09-17T19:28:39.843Z,1.38
2022-09-17T19:31:12.247Z,1.27
2022-09-17T19:33:39.110Z,1.40
2022-09-17T19:36:10.196Z,1.38
2022-09-17T19:38:37.573Z,1.40
2022-09-17T19:41:07.328Z,1.70
2022-09-17T19:43:34.062Z,1.25
2022-09-17T19:46:10.654Z,1.55
2022-09-17T19:48:37.988Z,1.02
2022-09-17T19:51:05.166Z,1.30
2022-09-17T19:53:35.726Z,0.77
2022-09-17T19:56:02.907Z,0.80
2022-09-17T19:58:29.315Z,1.02
2022-09-17T20:00:58.501Z,1.00
2022-09-17T20:03:26.126Z,0.98
2022-09-17T20:05:59.899Z,1.20
2022-09-17T20:08:27.552Z,1.20
2022-09-17T20:10:54.924Z,0.90
2022-09-17T20:13:23.052Z,1.17
2022-09-17T20:15:49.928Z,0.80
2022-09-17T20:18:19.908Z,1.13
2022-09-17T20:20:50.155Z,1.00
2022-09-17T20:23:16.561Z,1.00
2022-09-17T20:25:44.546Z,1.13
2022-09-17T20:28:10.951Z,1.10
2022-09-17T20:30:37.859Z,1.35
2022-09-17T20:33:04.295Z,1.30
2022-09-17T20:35:30.953Z,1.00
2022-09-17T20:40:44.684Z,1.20
2022-09-17T20:43:11.424Z,1.10
2022-09-17T20:45:37.882Z,1.52
2022-09-17T20:48:04.394Z,1.70
2022-09-17T20:50:30.808Z,1.48
2022-09-17T20:52:57.850Z,1.25
2022-09-17T20:55:24.365Z,1.17
2022-09-17T20:57:53.613Z,1.20
2022-09-17T21:00:21.770Z,1.30
2022-09-17T21:02:54.048Z,1.48
2022-09-17T21:05:20.740Z,1.83
2022-09-17T21:07:47.579Z,1.80
2022-09-17T21:10:14.120Z,2.55
2022-09-17T21:12:40.750Z,2.65
2022-09-17T21:15:07.568Z,2.40
2022-09-17T21:17:34.557Z,2.92
2022-09-17T21:20:01.135Z,2.90
2022-09-17T21:22:27.536Z,2.50
2022-09-17T21:24:54.156Z,2.30
2022-09-17T21:27:20.788Z,2.05
2022-09-17T21:29:47.207Z,1.65
2022-09-17T21:32:13.951Z,1.80
2022-09-17T21:34:40.647Z,1.70
2022-09-17T21:37:07.459Z,1.73
2022-09-17T21:39:36.994Z,1.50
2022-09-17T21:42:03.524Z,1.63
2022-09-17T21:44:30.595Z,1.75
2022-09-17T21:46:57.888Z,1.60
2022-09-17T21:49:25.360Z,1.52
2022-09-17T21:51:52.096Z,1.48
2022-09-17T21:54:18.704Z,1.60
2022-09-17T21:56:46.503Z,1.70
2022-09-17T21:59:15.762Z,1.77
2022-09-17T22:01:47.834Z,1.80
2022-09-17T22:04:17.462Z,1.70
2022-09-17T22:06:45.502Z,2.20
2022-09-17T22:09:21.303Z,1.90
2022-09-17T22:11:48.233Z,1.63
2022-09-17T22:14:23.947Z,1.85
2022-09-17T22:16:53.096Z,1.80
2022-09-17T22:19:21.656Z,1.92
2022-09-17T22:21:51.104Z,1.60
2022-09-17T22:24:19.941Z,2.00
2022-09-17T22:26:54.084Z,2.20
2022-09-17T22:29:24.162Z,1.95
2022-09-17T22:31:50.991Z,2.30
2022-09-17T22:34:22.521Z,1.70
2022-09-17T22:36:49.501Z,2.35
2022-09-17T22:39:16.240Z,2.03
2022-09-17T22:41:45.534Z,1.33
2022-09-17T22:44:18.603Z,1.52
2022-09-17T22:46:47.935Z,2.03
2022-09-17T22:49:15.371Z,1.85
2022-09-17T22:51:43.239Z,2.00
2022-09-17T22:54:14.695Z,1.73
2022-09-17T22:56:42.331Z,1.70
2022-09-17T22:59:09.394Z,1.85
2022-09-17T23:01:37.416Z,1.83
2022-09-17T23:04:05.595Z,1.40
2022-09-17T23:06:35.670Z,1.75
2022-09-17T23:09:03.158Z,1.60
2022-09-17T23:11:32.232Z,1.73
2022-09-17T23:14:02.349Z,1.75
2022-09-17T23:16:33.534Z,1.58
2022-09-17T23:19:00.410Z,1.95
2022-09-17T23:21:26.880Z,1.77
2022-09-17T23:23:53.605Z,1.70
2022-09-17T23:26:22.934Z,2.10
2022-09-17T23:28:50.263Z,1.50
2022-09-17T23:31:28.397Z,1.70
2022-09-17T23:33:56.478Z,2.35
2022-09-17T23:36:26.283Z,2.17
2022-09-17T23:38:55.432Z,1.73
2022-09-17T23:41:33.366Z,1.90
2022-09-17T23:44:02.525Z,1.38
2022-09-17T23:46:32.748Z,1.42
2022-09-17T23:51:30.575Z,1.33
2022-09-17T23:53:58.072Z,1.92
2022-09-17T23:56:26.670Z,1.83
2022-09-17T23:58:59.165Z,1.70
